Thief River Falls, MN (56701)

10:43 AM CDT on August 20, 2014 (GMT -0500)
Thief River Falls Regional | Change Station
CLOSE
Current Station
Airport
Location: Thief River Falls,
Elevation: 1115 ft
Nearby Weather Stations

Elev 1115 ft 48.06 °N, 96.18 °W | Updated 8 minutes ago

Clear
Clear
73 °F
Feels Like 73 °F
N
8
Wind Variable Wind from SE

Today
High -- | Low -- °F
--% Chance of Precip.
Yesterday
High -- | Low -- °F
Precip. -- in
6:26 AM 8:28 PM
Waning Crescent, 21% visible
Pressure 29.82 in
Visibility 10.0 miles
Clouds Clear
Dew Point 64 °F
Humidity 73%
Rainfall 0.00 in
Snow Depth Not available.
UV 5 out of 12
Pollen 10.70 out of 12
Air Quality Not available.
Flu Activity Not available.
METAR KTVF 201535Z AUTO 13007KT 10SM CLR 23/18 A2982 RMK AO1

More Conditions Fewer Conditions

Pressure 29.82 in
Visibility 10.0 miles
Clouds Clear
Dew Point 64 °F
Humidity 73%
Rainfall 0.00 in
Snow Depth Not available.
UV 5 out of 12
Pollen 10.70 out of 12
Air Quality Not available.
Flu Activity Not available.
METAR KTVF 201535Z AUTO 13007KT 10SM CLR 23/18 A2982 RMK AO1

More Conditions Fewer Conditions

10-Day Weather Forecast

Almanac

Astronomy

Aug. 20, 2014 Rise Set
Actual Time 6:26 AM CDT 8:28 PM CDT
Civil Twilight 5:52 AM CDT 9:02 PM CDT
Nautical Twilight 5:10 AM CDT 9:43 PM CDT
Astronomical Twilight 4:24 AM CDT 10:30 PM CDT
Moon 1:58 AM CDT 5:22 PM CDT
Length of Visible Light 15h 10m
Length of Day
14h 02m
Tomorrow will be 3m 15s shorter.
Waning Crescent, 21% of the Moon is Illuminated
Today
Waning Crescent
Aug 25
New
Sep 2
First Quarter
Sep 8
Full
Sep 15
Last Quarter

Today's Extremes

State Highs State Lows

Community

WunderPhotos

Upload Photos

1,745,668 photos uploaded!

WunderBlogs® & News

Nearby

Snow Depth

Station Depth Elevation
No new snow has been reported.

Earthquake Activity

City Distance Mag. Time & Date
No recent earthquake activity has been reported nearby.
Minimum magnitude displayed is 2.5.

Coastal Water Temperatures

Place Temperature
No Stations Reporting

Nearby Weather Stations